Ellington, Missouri
Current Conditions -  °F | °C
As of 1:55 PM on Monday 22 Dec 2014 (Local Time) from KFAM Reporting Station
Overcast Overcast  
Wind Chill:   Ceiling: 600
Heat Index:   Visibility: 10mi
Dew Point:   Wind: 9mph
Humidity: 93%   Direction: 120°ESE
Pressure: 29.58"   Gusts: NA
Location:  37.24°N, 90.97°W
Report Text: KFAM 221955Z AUTO 12008KT 10SM OVC006 09/08 A2958 RMK AO1 P0003
Loading
Personal Weather Stations






























Interactive Weather Map New forecast layout! Learn more

10-Day Weather Forecast

Advertisements
Track Severe Weather on mobile